createdAt,value
2019-04-20T00:00:04.384Z,72.64
2019-04-20T00:01:01.573Z,74.08
2019-04-20T00:02:07.231Z,74.40
2019-04-20T00:03:01.353Z,73.98
2019-04-20T00:03:59.412Z,74.08
2019-04-20T00:04:59.404Z,73.88
2019-04-20T00:05:59.418Z,74.19
2019-04-20T00:06:59.378Z,74.08
2019-04-20T00:08:03.218Z,73.68
2019-04-20T00:09:08.817Z,74.40
2019-04-20T00:10:06.280Z,73.68
2019-04-20T00:11:07.994Z,74.19
2019-04-20T00:12:08.920Z,73.88
2019-04-20T00:13:12.516Z,74.43
2019-04-20T00:14:08.540Z,74.43
2019-04-20T00:15:00.629Z,74.19
2019-04-20T00:15:59.944Z,73.91
2019-04-20T00:16:59.269Z,74.74
2019-04-20T00:18:02.194Z,73.71
2019-04-20T00:19:03.228Z,74.12
2019-04-20T00:20:04.015Z,74.43
2019-04-20T00:21:05.525Z,74.74
2019-04-20T00:22:04.586Z,74.95
2019-04-20T00:23:00.200Z,75.15
2019-04-20T00:24:01.043Z,74.98
2019-04-20T00:25:04.249Z,74.57
2019-04-20T00:26:06.774Z,74.74
2019-04-20T00:27:22.092Z,74.98
2019-04-20T00:28:22.724Z,74.77
2019-04-20T00:29:20.189Z,74.57
2019-04-20T00:30:26.441Z,74.16
2019-04-20T00:31:20.698Z,75.29
2019-04-20T00:32:13.438Z,75.32
2019-04-20T00:33:09.604Z,74.91
2019-04-20T00:34:06.681Z,74.60
2019-04-20T00:35:00.064Z,74.71
2019-04-20T00:35:59.054Z,76.56
2019-04-20T00:37:00.291Z,76.66
2019-04-20T00:37:59.171Z,76.56
2019-04-20T00:39:02.744Z,76.56
2019-04-20T00:40:00.007Z,76.66
2019-04-20T00:41:03.698Z,76.66
2019-04-20T00:42:05.605Z,76.35
2019-04-20T00:43:01.482Z,76.56
2019-04-20T00:44:07.153Z,76.56
2019-04-20T00:45:07.941Z,76.29
2019-04-20T00:46:09.129Z,76.76
2019-04-20T00:47:13.313Z,76.70
2019-04-20T00:48:05.703Z,77.08
2019-04-20T00:49:15.036Z,77.11
2019-04-20T00:50:13.678Z,77.31
2019-04-20T00:51:22.320Z,77.25
2019-04-20T00:53:11.402Z,77.62
2019-04-20T00:54:00.895Z,77.56
2019-04-20T00:55:00.016Z,77.35
2019-04-20T00:55:59.165Z,77.35
2019-04-20T00:57:09.289Z,78.08
2019-04-20T00:58:11.750Z,77.87
2019-04-20T00:59:13.123Z,78.08
2019-04-20T01:00:17.698Z,78.69
2019-04-20T01:01:21.886Z,78.80
2019-04-20T01:02:18.029Z,78.28
2019-04-20T01:03:14.306Z,77.56
2019-04-20T01:04:20.191Z,78.80
2019-04-20T01:05:17.968Z,79.11
2019-04-20T01:06:19.291Z,78.83
2019-04-20T01:07:13.745Z,79.21
2019-04-20T01:08:02.138Z,78.83
2019-04-20T01:08:59.211Z,79.04
2019-04-20T01:09:58.672Z,78.52
2019-04-20T01:11:02.718Z,78.63
2019-04-20T01:11:58.653Z,79.45
2019-04-20T01:13:05.066Z,79.35
2019-04-20T01:14:04.376Z,79.35
2019-04-20T01:15:04.282Z,79.04
2019-04-20T01:16:07.643Z,79.25
2019-04-20T01:17:10.990Z,79.04
2019-04-20T01:17:59.581Z,79.76
2019-04-20T01:18:58.598Z,79.11
2019-04-20T01:19:58.561Z,79.76
2019-04-20T01:21:06.814Z,79.66
2019-04-20T01:22:06.737Z,79.35
2019-04-20T01:23:06.493Z,79.55
2019-04-20T01:24:02.932Z,79.86
2019-04-20T01:25:06.882Z,80.28
2019-04-20T01:26:05.539Z,80.48
2019-04-20T01:27:02.486Z,80.07
2019-04-20T01:28:16.322Z,80.00
2019-04-20T01:29:16.149Z,79.80
2019-04-20T01:30:10.164Z,80.83
2019-04-20T01:31:12.607Z,80.11
2019-04-20T01:32:14.142Z,80.11
2019-04-20T01:33:12.480Z,80.42
2019-04-20T01:34:08.313Z,80.62
2019-04-20T01:35:09.999Z,80.52
2019-04-20T01:36:19.527Z,80.62
2019-04-20T01:37:14.483Z,80.11
2019-04-20T01:38:16.872Z,80.62
2019-04-20T01:39:10.315Z,80.32
2019-04-20T01:40:03.000Z,80.62
2019-04-20T01:40:59.347Z,80.52
2019-04-20T01:41:58.314Z,81.24
2019-04-20T01:42:59.513Z,81.07
2019-04-20T01:43:58.580Z,80.87
2019-04-20T01:44:58.972Z,80.83
2019-04-20T01:46:07.549Z,80.87
2019-04-20T01:47:03.196Z,80.52
2019-04-20T01:48:01.824Z,80.83
2019-04-20T01:48:59.914Z,80.76
2019-04-20T01:50:03.843Z,80.66
2019-04-20T01:51:07.369Z,80.76
2019-04-20T01:52:08.545Z,81.59
2019-04-20T01:53:11.492Z,81.76
2019-04-20T01:54:16.113Z,81.28
2019-04-20T01:55:16.773Z,82.31
2019-04-20T01:56:15.698Z,82.52
2019-04-20T01:57:08.245Z,82.31
2019-04-20T01:58:17.491Z,82.00
2019-04-20T01:59:16.379Z,83.28
2019-04-20T02:00:08.506Z,83.34
2019-04-20T02:01:00.731Z,82.42
2019-04-20T02:02:04.440Z,82.15
2019-04-20T02:03:02.933Z,82.35
2019-04-20T02:04:01.894Z,82.25
2019-04-20T02:05:04.460Z,82.97
2019-04-20T02:06:06.182Z,82.45
2019-04-20T02:07:02.937Z,82.97
2019-04-20T02:07:59.085Z,82.76
2019-04-20T02:09:03.354Z,82.35
2019-04-20T02:10:03.663Z,82.97
2019-04-20T02:11:02.176Z,82.56
2019-04-20T02:12:05.031Z,82.56
2019-04-20T02:13:02.586Z,82.15
2019-04-20T02:14:02.396Z,83.39
2019-04-20T02:15:02.756Z,83.11
2019-04-20T02:16:09.538Z,83.07
2019-04-20T02:17:09.534Z,83.39
2019-04-20T02:18:10.755Z,83.59
2019-04-20T02:19:13.781Z,83.42
2019-04-20T02:20:17.072Z,82.29
2019-04-20T02:21:18.375Z,82.70
2019-04-20T02:22:09.912Z,83.07
2019-04-20T02:23:10.739Z,83.01
2019-04-20T02:24:02.708Z,83.01
2019-04-20T02:24:59.523Z,83.49
2019-04-20T02:25:58.814Z,83.84
2019-04-20T02:26:57.969Z,83.42
2019-04-20T02:28:14.614Z,83.84
2019-04-20T02:29:23.638Z,84.56
2019-04-20T02:30:34.375Z,84.77
2019-04-20T02:31:45.265Z,83.94
2019-04-20T02:32:26.556Z,83.53
2019-04-20T02:34:59.849Z,83.94
2019-04-20T02:35:40.445Z,84.56
2019-04-20T02:36:40.300Z,84.66
2019-04-20T02:37:38.989Z,84.15
2019-04-20T02:38:38.878Z,84.05
2019-04-20T02:41:35.114Z,84.15
2019-04-20T02:42:35.308Z,84.45
2019-04-20T02:43:41.969Z,84.05
2019-04-20T02:44:38.013Z,84.25
2019-04-20T02:45:36.539Z,84.56
2019-04-20T02:46:33.653Z,84.19
2019-04-20T02:48:37.365Z,84.60
2019-04-20T02:50:36.178Z,84.70
2019-04-20T02:51:38.992Z,85.22
2019-04-20T02:53:41.153Z,85.11
2019-04-20T02:54:25.980Z,85.11
2019-04-20T02:56:41.828Z,85.22
2019-04-20T02:57:35.958Z,85.02
2019-04-20T02:58:34.194Z,85.02
2019-04-20T03:00:25.115Z,85.26
2019-04-20T03:02:17.003Z,85.02
2019-04-20T03:03:10.139Z,85.11
2019-04-20T03:04:04.338Z,86.19
2019-04-20T03:05:13.386Z,85.47
2019-04-20T03:06:13.660Z,85.78
2019-04-20T03:07:15.216Z,85.42
2019-04-20T03:08:20.166Z,86.09
2019-04-20T03:09:19.887Z,85.68
2019-04-20T03:10:17.304Z,85.78
2019-04-20T03:11:24.816Z,85.74
2019-04-20T03:12:23.846Z,86.05
2019-04-20T03:13:18.599Z,86.29
2019-04-20T03:14:20.048Z,85.78
2019-04-20T03:15:18.556Z,85.78
2019-04-20T03:16:16.300Z,86.40
2019-04-20T03:17:25.749Z,85.78
2019-04-20T03:18:19.254Z,86.09
2019-04-20T03:19:14.221Z,85.88
2019-04-20T03:20:19.998Z,86.29
2019-04-20T03:21:27.361Z,87.23
2019-04-20T03:22:23.630Z,86.81
2019-04-20T03:23:29.731Z,87.02
2019-04-20T03:24:27.070Z,86.29
2019-04-20T03:25:20.502Z,86.29
2019-04-20T03:26:17.630Z,86.40
2019-04-20T03:27:16.092Z,86.29
2019-04-20T03:28:19.478Z,86.29
2019-04-20T03:29:13.971Z,86.40
2019-04-20T03:31:00.955Z,85.71
2019-04-20T03:31:45.000Z,87.06
2019-04-20T03:32:57.921Z,87.06
2019-04-20T03:33:30.992Z,87.27
2019-04-20T03:34:48.735Z,87.68
2019-04-20T03:35:22.625Z,87.37
2019-04-20T03:36:25.544Z,87.37
2019-04-20T03:37:28.088Z,87.06
2019-04-20T03:38:14.264Z,87.27
2019-04-20T03:39:19.101Z,87.16
2019-04-20T03:40:12.807Z,86.85
2019-04-20T03:41:09.534Z,87.16
2019-04-20T03:41:59.291Z,87.37
2019-04-20T03:42:57.047Z,88.09
2019-04-20T03:44:04.089Z,88.20
2019-04-20T03:45:04.090Z,88.61
2019-04-20T03:46:04.734Z,87.93
2019-04-20T03:47:02.790Z,87.88
2019-04-20T03:48:11.566Z,88.55
2019-04-20T03:49:15.497Z,88.96
2019-04-20T03:50:18.780Z,88.24
2019-04-20T03:51:26.913Z,88.45
2019-04-20T03:52:16.385Z,88.65
2019-04-20T03:53:19.882Z,87.93
2019-04-20T03:54:14.761Z,87.62
2019-04-20T03:55:17.480Z,88.65
2019-04-20T03:56:22.598Z,87.82
2019-04-20T03:57:20.961Z,88.13
2019-04-20T03:58:18.629Z,87.93
2019-04-20T03:59:11.596Z,88.03
2019-04-20T04:00:16.280Z,88.24
2019-04-20T04:01:19.762Z,88.24
2019-04-20T04:03:45.893Z,88.76
2019-04-20T04:04:21.430Z,88.45
2019-04-20T04:05:16.488Z,88.34
2019-04-20T04:06:09.607Z,88.55
2019-04-20T04:07:01.339Z,88.45
2019-04-20T04:08:06.174Z,88.13
2019-04-20T04:09:12.231Z,88.59
2019-04-20T04:10:14.408Z,87.55
2019-04-20T04:11:15.980Z,88.96
2019-04-20T04:12:09.112Z,88.24
2019-04-20T04:12:58.804Z,88.45
2019-04-20T04:13:56.719Z,88.24
2019-04-20T04:14:57.828Z,88.76
2019-04-20T04:16:02.815Z,88.13
2019-04-20T04:17:00.929Z,88.96
2019-04-20T04:18:04.396Z,88.24
2019-04-20T04:19:04.550Z,88.48
2019-04-20T04:20:05.039Z,88.03
2019-04-20T04:21:03.641Z,88.55
2019-04-20T04:22:11.544Z,89.48
2019-04-20T04:23:16.492Z,89.28
2019-04-20T04:24:09.547Z,89.73
2019-04-20T04:25:14.603Z,89.38
2019-04-20T04:26:20.392Z,88.96
2019-04-20T04:27:09.431Z,88.96
2019-04-20T04:28:15.233Z,88.55
2019-04-20T04:29:21.318Z,88.45
2019-04-20T04:30:14.831Z,88.86
2019-04-20T04:31:16.471Z,88.65
2019-04-20T04:32:23.581Z,88.86
2019-04-20T04:33:44.627Z,89.17
2019-04-20T04:34:14.600Z,89.28
2019-04-20T04:35:09.224Z,88.96
2019-04-20T04:36:15.392Z,89.17
2019-04-20T04:37:17.950Z,88.76
2019-04-20T04:38:24.093Z,88.34
2019-04-20T04:39:22.892Z,88.76
2019-04-20T04:40:27.851Z,88.76
2019-04-20T04:41:39.941Z,88.96
2019-04-20T04:42:34.192Z,89.17
2019-04-20T04:43:15.991Z,88.45
2019-04-20T04:44:11.960Z,88.55
2019-04-20T04:45:04.220Z,88.76
2019-04-20T04:45:57.485Z,88.24
2019-04-20T04:47:00.263Z,88.65
2019-04-20T04:47:57.763Z,88.45
2019-04-20T04:49:07.482Z,88.55
2019-04-20T04:50:05.614Z,88.65
2019-04-20T04:51:03.166Z,88.45
2019-04-20T04:52:03.893Z,88.45
2019-04-20T04:53:04.548Z,88.69
2019-04-20T04:54:05.814Z,88.79
2019-04-20T04:55:11.268Z,88.86
2019-04-20T04:56:04.837Z,88.76
2019-04-20T04:56:57.119Z,88.96
2019-04-20T04:57:56.135Z,88.96
2019-04-20T04:58:56.239Z,88.76
2019-04-20T04:59:57.297Z,88.76
2019-04-20T05:01:01.353Z,88.76
2019-04-20T05:01:58.393Z,88.65
2019-04-20T05:03:00.912Z,88.65
2019-04-20T05:05:17.761Z,88.55
2019-04-20T05:06:14.773Z,88.03
2019-04-20T05:07:12.871Z,88.45
2019-04-20T05:08:09.104Z,88.61
2019-04-20T05:09:01.857Z,88.51
2019-04-20T05:09:57.049Z,87.51
2019-04-20T05:10:56.267Z,88.30
2019-04-20T05:12:02.757Z,88.82
2019-04-20T05:12:56.944Z,88.82
2019-04-20T05:14:02.065Z,88.40
2019-04-20T05:15:06.062Z,88.61
2019-04-20T05:16:08.986Z,88.09
2019-04-20T05:17:11.648Z,88.51
2019-04-20T05:18:19.145Z,88.82
2019-04-20T05:19:19.307Z,88.30
2019-04-20T05:20:15.099Z,88.09
2019-04-20T05:21:15.276Z,88.71
2019-04-20T05:22:13.751Z,88.51
2019-04-20T05:23:13.029Z,88.67
2019-04-20T05:24:13.268Z,88.92
2019-04-20T05:26:19.666Z,88.71
2019-04-20T05:27:20.903Z,88.16
2019-04-20T05:28:14.449Z,88.78
2019-04-20T05:29:06.747Z,88.67
2019-04-20T05:29:57.084Z,88.43
2019-04-20T05:30:59.984Z,87.39
2019-04-20T05:32:03.497Z,86.98
2019-04-20T05:33:03.352Z,87.08
2019-04-20T05:34:19.974Z,86.77
2019-04-20T05:35:24.099Z,87.04
2019-04-20T05:36:18.952Z,86.42
2019-04-20T05:37:29.658Z,85.70
2019-04-20T05:38:28.353Z,86.01
2019-04-20T05:39:21.483Z,85.60
2019-04-20T05:40:20.494Z,85.70
2019-04-20T05:41:11.703Z,85.97
2019-04-20T05:42:22.125Z,85.97
2019-04-20T05:43:17.934Z,85.35
2019-04-20T05:44:13.056Z,85.35
2019-04-20T05:45:11.730Z,85.52
2019-04-20T05:46:18.481Z,85.72
2019-04-20T05:47:16.978Z,85.62
2019-04-20T05:48:11.916Z,85.21
2019-04-20T05:49:23.357Z,85.17
2019-04-20T05:50:08.550Z,85.06
2019-04-20T05:51:21.601Z,85.99
2019-04-20T05:52:31.581Z,86.20
2019-04-20T05:53:22.186Z,84.92
2019-04-20T05:54:20.310Z,84.43
2019-04-20T05:55:19.100Z,83.87
2019-04-20T05:56:16.993Z,81.77
2019-04-20T05:57:21.060Z,80.91
2019-04-20T05:58:16.499Z,79.54
2019-04-20T05:59:15.021Z,79.03
2019-04-20T06:00:19.202Z,78.51
2019-04-20T06:01:22.769Z,77.86
2019-04-20T06:02:15.941Z,76.93
2019-04-20T06:03:15.235Z,77.55
2019-04-20T06:04:17.287Z,77.31
2019-04-20T06:05:19.587Z,77.31
2019-04-20T06:06:20.641Z,77.92
2019-04-20T06:07:21.469Z,77.00
2019-04-20T06:08:28.830Z,76.14
2019-04-20T06:09:28.026Z,74.80
2019-04-20T06:10:20.805Z,75.01
2019-04-20T06:11:24.076Z,74.26
2019-04-20T06:13:14.989Z,75.66
2019-04-20T06:14:07.058Z,76.28
2019-04-20T06:15:11.851Z,75.21
2019-04-20T06:16:14.401Z,75.01
2019-04-20T06:17:21.003Z,75.32
2019-04-20T06:18:12.337Z,73.98
2019-04-20T06:19:26.059Z,71.93
2019-04-20T06:20:25.357Z,72.14
2019-04-20T06:21:27.752Z,71.28
2019-04-20T06:22:21.740Z,71.90
2019-04-20T06:23:19.659Z,71.08
2019-04-20T06:24:19.278Z,71.28
2019-04-20T06:25:40.834Z,71.48
2019-04-20T06:26:28.221Z,70.87
2019-04-20T06:27:14.581Z,70.46
2019-04-20T06:28:12.722Z,70.67
2019-04-20T06:29:15.686Z,71.25
2019-04-20T06:30:13.776Z,71.45
2019-04-20T06:32:20.833Z,71.15
2019-04-20T06:33:28.547Z,71.90
2019-04-20T06:34:39.925Z,70.32
2019-04-20T06:35:30.578Z,70.26
2019-04-20T06:36:26.162Z,70.97
2019-04-20T06:37:16.320Z,71.45
2019-04-20T06:38:40.300Z,71.04
2019-04-20T06:39:20.289Z,71.04
2019-04-20T06:40:37.991Z,70.84
2019-04-20T06:41:21.620Z,70.43
2019-04-20T06:42:18.106Z,71.04
2019-04-20T06:43:13.001Z,69.71
2019-04-20T06:44:26.687Z,69.81
2019-04-20T06:45:19.806Z,69.92
2019-04-20T06:46:15.261Z,70.43
2019-04-20T06:47:22.775Z,69.37
2019-04-20T06:48:22.121Z,69.37
2019-04-20T06:49:24.511Z,69.27
2019-04-20T06:50:14.957Z,69.89
2019-04-20T06:51:20.655Z,69.89
2019-04-20T06:52:23.119Z,69.13
2019-04-20T06:53:28.559Z,69.13
2019-04-20T06:54:07.784Z,69.34
2019-04-20T06:55:16.837Z,68.83
2019-04-20T06:56:21.676Z,69.95
2019-04-20T06:57:21.100Z,69.61
2019-04-20T06:58:36.410Z,69.10
2019-04-20T06:59:21.425Z,67.77
2019-04-20T07:00:15.728Z,68.90
2019-04-20T07:01:17.130Z,69.38
2019-04-20T07:02:24.589Z,68.87
2019-04-20T07:03:30.984Z,69.14
2019-04-20T07:04:36.448Z,66.38
2019-04-20T07:05:20.792Z,66.25
2019-04-20T07:06:42.158Z,65.36
2019-04-20T07:07:18.469Z,65.53
2019-04-20T07:08:33.079Z,66.31
2019-04-20T07:09:21.698Z,65.40
2019-04-20T07:10:22.066Z,64.34
2019-04-20T07:11:18.824Z,64.55
2019-04-20T07:12:12.584Z,63.70
2019-04-20T07:13:11.819Z,62.78
2019-04-20T07:14:02.821Z,63.29
2019-04-20T07:15:16.294Z,62.55
2019-04-20T07:16:18.563Z,62.24
2019-04-20T07:17:28.414Z,61.73
2019-04-20T07:18:18.643Z,62.11
2019-04-20T07:19:19.013Z,63.18
2019-04-20T07:20:10.306Z,61.14
2019-04-20T07:21:23.482Z,61.38
2019-04-20T07:22:32.137Z,62.40
2019-04-20T07:23:23.825Z,59.83
2019-04-20T07:24:18.070Z,59.01
2019-04-20T07:25:19.018Z,58.28
2019-04-20T07:26:23.763Z,57.77
2019-04-20T07:27:14.932Z,56.32
2019-04-20T07:28:19.585Z,57.74
2019-04-20T07:29:24.033Z,55.91
2019-04-20T07:30:16.448Z,57.64
2019-04-20T07:31:13.162Z,59.95
2019-04-20T07:32:09.930Z,58.09
2019-04-20T07:33:16.083Z,57.99
2019-04-20T07:34:15.688Z,55.83
2019-04-20T07:35:15.079Z,56.34
2019-04-20T07:36:20.168Z,55.86
2019-04-20T07:37:43.201Z,58.17
2019-04-20T07:38:34.322Z,57.33
2019-04-20T07:39:22.958Z,55.88
2019-04-20T07:40:17.622Z,55.80
2019-04-20T07:41:23.644Z,55.60
2019-04-20T07:42:21.191Z,56.31
2019-04-20T07:43:16.393Z,56.52
2019-04-20T07:44:19.936Z,55.91
2019-04-20T07:45:24.407Z,55.32
2019-04-20T07:46:24.966Z,56.26
2019-04-20T07:47:24.177Z,57.97
2019-04-20T07:48:15.482Z,58.14
2019-04-20T07:49:22.435Z,56.18
2019-04-20T07:50:09.324Z,56.87
2019-04-20T07:51:05.857Z,55.63
2019-04-20T07:51:55.597Z,53.78
2019-04-20T07:53:13.489Z,54.08
2019-04-20T07:54:24.600Z,53.78
2019-04-20T07:56:20.762Z,53.55
2019-04-20T07:57:15.479Z,53.75
2019-04-20T07:58:08.283Z,55.55
2019-04-20T07:59:03.665Z,54.89
2019-04-20T08:00:16.328Z,53.65
2019-04-20T08:01:23.880Z,53.25
2019-04-20T08:02:25.006Z,54.16
2019-04-20T08:03:23.707Z,53.63
2019-04-20T08:04:13.437Z,53.02
2019-04-20T08:05:04.411Z,51.78
2019-04-20T08:06:03.705Z,49.28
2019-04-20T08:06:59.120Z,49.48
2019-04-20T08:08:16.821Z,49.96
2019-04-20T08:09:07.371Z,51.05
2019-04-20T08:10:00.589Z,48.96
2019-04-20T08:11:13.863Z,50.67
2019-04-20T08:12:22.127Z,48.85
2019-04-20T08:14:22.468Z,51.05
2019-04-20T08:15:22.059Z,51.03
2019-04-20T08:16:32.967Z,48.10
2019-04-20T08:17:28.957Z,49.92
2019-04-20T08:18:22.852Z,46.79
2019-04-20T08:19:10.140Z,47.30
2019-04-20T08:20:18.883Z,48.61
2019-04-20T08:21:20.896Z,49.41
2019-04-20T08:22:21.649Z,47.40
2019-04-20T08:23:17.517Z,48.02
2019-04-20T08:24:13.456Z,47.70
2019-04-20T08:25:08.602Z,47.27
2019-04-20T08:26:06.707Z,47.67
2019-04-20T08:26:59.008Z,45.94
2019-04-20T08:27:55.029Z,45.74
2019-04-20T08:29:00.182Z,48.06
2019-04-20T08:30:09.093Z,45.74
2019-04-20T08:31:09.357Z,45.56
2019-04-20T08:32:16.117Z,47.15
2019-04-20T08:33:13.307Z,45.54
2019-04-20T08:34:18.561Z,45.54
2019-04-20T08:35:22.934Z,46.33
2019-04-20T08:36:16.836Z,45.52
2019-04-20T08:37:11.093Z,46.70
2019-04-20T08:38:47.320Z,46.20
2019-04-20T08:40:15.052Z,45.95
2019-04-20T08:41:14.252Z,44.09
2019-04-20T08:42:16.198Z,46.80
2019-04-20T08:43:30.254Z,44.57
2019-04-20T08:44:35.334Z,45.27
2019-04-20T08:45:16.598Z,45.59
2019-04-20T08:46:15.065Z,44.17
2019-04-20T08:47:21.584Z,45.67
2019-04-20T08:48:18.031Z,43.95
2019-04-20T08:49:22.490Z,43.34
2019-04-20T08:50:20.964Z,45.25
2019-04-20T08:51:16.532Z,43.74
2019-04-20T08:52:41.272Z,46.76
2019-04-20T08:53:20.512Z,43.52
2019-04-20T08:54:12.399Z,43.92
2019-04-20T08:55:10.269Z,42.72
2019-04-20T08:56:09.970Z,42.52
2019-04-20T08:56:58.457Z,43.12
2019-04-20T08:57:54.462Z,43.20
2019-04-20T08:58:53.407Z,43.56
2019-04-20T08:59:54.379Z,43.46
2019-04-20T09:00:58.777Z,42.13
2019-04-20T09:01:58.122Z,41.01
2019-04-20T09:03:00.898Z,40.61
2019-04-20T09:04:04.640Z,42.35
2019-04-20T09:05:01.055Z,41.35
2019-04-20T09:06:04.626Z,41.45
2019-04-20T09:07:07.696Z,41.37
2019-04-20T09:08:06.942Z,41.57
2019-04-20T09:09:11.681Z,43.22
2019-04-20T09:10:16.398Z,43.90
2019-04-20T09:11:12.754Z,43.00
2019-04-20T09:12:09.061Z,43.28
2019-04-20T09:13:05.740Z,43.12
2019-04-20T09:13:58.445Z,43.50
2019-04-20T09:14:55.184Z,43.40
2019-04-20T09:15:53.535Z,43.98
2019-04-20T09:16:59.721Z,42.47
2019-04-20T09:18:00.671Z,43.08
2019-04-20T09:19:00.006Z,42.68
2019-04-20T09:19:58.612Z,41.75
2019-04-20T09:21:01.173Z,41.65
2019-04-20T09:22:03.206Z,41.55
2019-04-20T09:23:13.475Z,41.13
2019-04-20T09:24:19.762Z,39.62
2019-04-20T09:25:40.022Z,40.59
2019-04-20T09:26:29.703Z,38.99
2019-04-20T09:27:10.303Z,41.38
2019-04-20T09:28:07.493Z,38.59
2019-04-20T09:29:05.843Z,40.71
2019-04-20T09:30:16.105Z,39.40
2019-04-20T09:31:13.253Z,40.63
2019-04-20T09:32:14.176Z,40.13
2019-04-20T09:33:16.772Z,42.52
2019-04-20T09:34:13.269Z,40.01
2019-04-20T09:35:13.563Z,41.29
2019-04-20T09:36:10.336Z,40.57
2019-04-20T09:37:14.161Z,42.10
2019-04-20T09:38:12.267Z,40.09
2019-04-20T09:39:07.806Z,40.37
2019-04-20T09:40:15.794Z,39.87
2019-04-20T09:41:09.220Z,41.38
2019-04-20T09:42:00.833Z,39.95
2019-04-20T09:42:53.906Z,38.83
2019-04-20T09:43:54.110Z,40.63
2019-04-20T09:44:56.194Z,40.91
2019-04-20T09:46:00.030Z,39.31
2019-04-20T09:46:56.760Z,39.11
2019-04-20T09:47:56.450Z,39.93
2019-04-20T09:48:57.895Z,42.71
2019-04-20T09:50:03.774Z,39.35
2019-04-20T09:51:16.847Z,39.45
2019-04-20T09:52:07.855Z,40.47
2019-04-20T09:53:11.558Z,38.85
2019-04-20T09:54:04.383Z,39.35
2019-04-20T09:55:06.805Z,38.15
2019-04-20T09:56:14.450Z,37.93
2019-04-20T09:57:13.268Z,39.55
2019-04-20T09:58:06.287Z,39.65
2019-04-20T09:59:12.267Z,38.93
2019-04-20T10:00:11.805Z,40.01
2019-04-20T10:01:08.366Z,40.80
2019-04-20T10:02:02.192Z,39.07
2019-04-20T10:02:54.690Z,36.98
2019-04-20T10:03:52.815Z,37.29
2019-04-20T10:04:53.487Z,37.08
2019-04-20T10:05:53.788Z,37.48
2019-04-20T10:06:52.666Z,39.65
2019-04-20T10:07:56.007Z,38.06
2019-04-20T10:08:56.795Z,39.76
2019-04-20T10:09:53.919Z,38.24
2019-04-20T10:10:54.215Z,40.06
2019-04-20T10:11:53.224Z,37.86
2019-04-20T10:12:52.568Z,38.46
2019-04-20T10:13:52.565Z,39.06
2019-04-20T10:14:53.238Z,37.24
2019-04-20T10:15:53.416Z,37.86
2019-04-20T10:16:53.714Z,37.27
2019-04-20T10:17:52.515Z,39.79
2019-04-20T10:18:54.989Z,38.28
2019-04-20T10:19:53.676Z,39.15
2019-04-20T10:20:53.785Z,38.36
2019-04-20T10:21:52.872Z,38.44
2019-04-20T10:22:52.473Z,39.43
2019-04-20T10:23:52.554Z,37.94
2019-04-20T10:24:53.807Z,37.64
2019-04-20T10:25:52.447Z,38.06
2019-04-20T10:26:52.552Z,38.87
2019-04-20T10:27:53.531Z,39.15
2019-04-20T10:28:52.395Z,38.76
2019-04-20T10:29:53.511Z,39.65
2019-04-20T10:30:52.663Z,38.04
2019-04-20T10:31:57.167Z,37.76
2019-04-20T10:32:54.074Z,37.16
2019-04-20T10:33:53.460Z,38.06
2019-04-20T10:34:52.758Z,37.76
2019-04-20T10:35:52.314Z,37.72
2019-04-20T10:36:53.407Z,39.20
2019-04-20T10:37:53.510Z,38.48
2019-04-20T10:38:52.681Z,37.01
2019-04-20T10:39:52.428Z,38.10
2019-04-20T10:41:03.500Z,37.92
2019-04-20T10:41:57.661Z,37.90
2019-04-20T10:42:53.257Z,37.60
2019-04-20T10:43:53.139Z,39.08
2019-04-20T10:44:55.324Z,39.16
2019-04-20T10:45:52.982Z,40.74
2019-04-20T10:46:53.359Z,37.95
2019-04-20T10:47:52.821Z,35.77
2019-04-20T10:48:54.468Z,36.29
2019-04-20T10:49:53.275Z,38.29
2019-04-20T10:50:52.811Z,37.97
2019-04-20T10:51:52.138Z,38.15
2019-04-20T10:52:52.125Z,41.12
2019-04-20T10:53:52.139Z,37.13
2019-04-20T10:54:52.349Z,36.34
2019-04-20T10:55:53.216Z,39.06
2019-04-20T10:56:52.084Z,37.55
2019-04-20T10:57:53.328Z,37.07
2019-04-20T10:58:52.060Z,31.99
2019-04-20T10:59:52.091Z,30.10
2019-04-20T11:00:53.449Z,35.17
2019-04-20T11:01:52.051Z,35.10
2019-04-20T11:02:52.482Z,34.71
2019-04-20T11:03:52.306Z,37.98
2019-04-20T11:04:52.609Z,35.89
2019-04-20T11:05:52.976Z,36.07
2019-04-20T11:06:52.453Z,35.58
2019-04-20T11:07:52.627Z,35.74
2019-04-20T11:08:52.873Z,35.05
2019-04-20T11:10:04.398Z,33.35
2019-04-20T11:11:05.113Z,35.82
2019-04-20T11:11:52.942Z,35.36
2019-04-20T11:12:52.533Z,36.46
2019-04-20T11:13:53.164Z,36.95
2019-04-20T11:14:52.354Z,35.46
2019-04-20T11:15:52.659Z,36.16
2019-04-20T11:16:51.859Z,35.58
2019-04-20T11:17:53.210Z,37.97
2019-04-20T11:18:51.860Z,36.57
2019-04-20T11:19:51.852Z,36.95
2019-04-20T11:20:53.188Z,35.28
2019-04-20T11:21:52.357Z,35.47
2019-04-20T11:22:52.675Z,34.08
2019-04-20T11:23:52.121Z,36.69
2019-04-20T11:24:52.369Z,35.39
2019-04-20T11:25:52.475Z,34.80
2019-04-20T11:26:52.103Z,34.00
2019-04-20T11:27:52.269Z,36.18
2019-04-20T11:28:52.481Z,33.28
2019-04-20T11:29:51.962Z,33.98
2019-04-20T11:30:52.174Z,34.16
2019-04-20T11:31:55.668Z,32.44
2019-04-20T11:32:51.977Z,33.05
2019-04-20T11:33:52.270Z,33.95
2019-04-20T11:34:51.661Z,32.35
2019-04-20T11:35:51.652Z,33.04
2019-04-20T11:36:52.934Z,31.63
2019-04-20T11:37:51.657Z,30.93
2019-04-20T11:38:51.616Z,30.35
2019-04-20T11:39:52.686Z,30.73
2019-04-20T11:41:04.094Z,31.64
2019-04-20T11:41:53.868Z,31.64
2019-04-20T11:42:51.574Z,32.74
2019-04-20T11:43:51.596Z,32.04
2019-04-20T11:44:52.827Z,35.22
2019-04-20T11:45:51.547Z,31.93
2019-04-20T11:46:52.541Z,30.93
2019-04-20T11:47:51.660Z,32.62
2019-04-20T11:48:51.882Z,34.89
2019-04-20T11:49:51.497Z,31.43
2019-04-20T11:50:51.655Z,31.61
2019-04-20T11:51:51.825Z,30.73
2019-04-20T11:52:51.596Z,34.31
2019-04-20T11:53:52.249Z,32.71
2019-04-20T11:54:52.583Z,30.91
2019-04-20T11:55:52.103Z,32.72
2019-04-20T11:56:51.419Z,32.72
2019-04-20T11:57:51.407Z,32.90
2019-04-20T11:58:51.422Z,35.16
2019-04-20T11:59:51.387Z,33.67
2019-04-20T12:01:00.734Z,32.56
2019-04-20T12:02:00.115Z,30.08
2019-04-20T12:02:54.283Z,31.96
2019-04-20T12:04:00.373Z,29.50
2019-04-20T12:05:08.859Z,30.09
2019-04-20T12:05:56.938Z,28.32
2019-04-20T12:06:52.875Z,28.63
2019-04-20T12:07:51.331Z,30.72
2019-04-20T12:08:52.522Z,30.24
2019-04-20T12:09:51.502Z,28.05
2019-04-20T12:10:55.784Z,28.23
2019-04-20T12:12:06.270Z,33.11
2019-04-20T12:12:55.422Z,28.93
2019-04-20T12:13:52.248Z,29.14
2019-04-20T12:14:52.500Z,32.01
2019-04-20T12:15:51.849Z,29.52
2019-04-20T12:16:51.198Z,30.22
2019-04-20T12:17:51.512Z,29.43
2019-04-20T12:18:52.410Z,32.59
2019-04-20T12:19:52.979Z,29.71
2019-04-20T12:20:52.532Z,30.30
2019-04-20T12:21:51.694Z,33.88
2019-04-20T12:22:52.497Z,32.09
2019-04-20T12:23:51.943Z,31.98
2019-04-20T12:24:52.152Z,29.39
2019-04-20T12:25:52.357Z,31.38
2019-04-20T12:26:51.138Z,29.39
2019-04-20T12:27:55.171Z,30.28
2019-04-20T12:28:52.070Z,29.08
2019-04-20T12:29:52.030Z,29.38
2019-04-20T12:30:51.508Z,28.28
2019-04-20T12:31:55.395Z,27.39
2019-04-20T12:32:56.492Z,26.52
2019-04-20T12:33:52.596Z,27.23
2019-04-20T12:34:51.009Z,28.91
2019-04-20T12:35:52.172Z,29.31
2019-04-20T12:36:51.229Z,27.73
2019-04-20T12:37:51.362Z,28.03
2019-04-20T12:38:51.075Z,28.32
2019-04-20T12:39:51.167Z,27.73
2019-04-20T12:40:52.360Z,28.62
2019-04-20T12:41:56.753Z,29.61
2019-04-20T12:42:53.064Z,28.42
2019-04-20T12:43:51.938Z,30.51
2019-04-20T12:44:50.918Z,27.35
2019-04-20T12:45:51.732Z,29.14
2019-04-20T12:46:52.004Z,28.26
2019-04-20T12:47:51.543Z,27.95
2019-04-20T12:48:51.531Z,31.03
2019-04-20T12:49:51.653Z,28.34
2019-04-20T12:50:50.828Z,28.55
2019-04-20T12:51:56.216Z,29.04
2019-04-20T12:52:52.569Z,27.25
2019-04-20T12:53:50.875Z,26.45
2019-04-20T12:54:50.782Z,26.56
2019-04-20T12:55:50.848Z,27.65
2019-04-20T12:56:50.810Z,27.96
2019-04-20T12:57:50.751Z,32.74
2019-04-20T12:58:51.650Z,28.26
2019-04-20T12:59:52.121Z,30.13
2019-04-20T13:00:52.146Z,29.04
2019-04-20T13:01:51.388Z,29.74
2019-04-20T13:02:51.538Z,29.24
2019-04-20T13:03:50.712Z,28.34
2019-04-20T13:04:51.193Z,27.96
2019-04-20T13:05:51.903Z,28.56
2019-04-20T13:06:53.756Z,29.16
2019-04-20T13:07:55.702Z,29.08
2019-04-20T13:08:55.236Z,30.16
2019-04-20T13:09:52.687Z,29.37